createdAt,value
2022-08-10T00:01:52.478Z,5.72
2022-08-10T00:04:22.139Z,5.90
2022-08-10T00:06:53.408Z,5.50
2022-08-10T00:09:21.059Z,5.15
2022-08-10T00:11:47.760Z,5.70
2022-08-10T00:14:14.482Z,4.95
2022-08-10T00:16:41.208Z,5.55
2022-08-10T00:19:07.980Z,5.25
2022-08-10T00:21:36.752Z,6.20
2022-08-10T00:24:03.942Z,5.15
2022-08-10T00:27:51.680Z,5.13
2022-08-10T00:29:17.549Z,5.30
2022-08-10T00:31:57.998Z,5.40
2022-08-10T00:34:26.440Z,5.10
2022-08-10T00:36:53.165Z,5.18
2022-08-10T00:39:19.885Z,5.25
2022-08-10T00:41:46.674Z,5.30
2022-08-10T00:44:33.413Z,5.50
2022-08-10T00:47:01.003Z,5.05
2022-08-10T00:49:28.502Z,5.15
2022-08-10T00:51:55.301Z,3.80
2022-08-10T00:54:24.715Z,5.85
2022-08-10T00:57:18.122Z,5.95
2022-08-10T00:59:58.986Z,4.82
2022-08-10T01:02:25.683Z,4.63
2022-08-10T01:04:59.981Z,5.20
2022-08-10T01:07:43.573Z,4.93
2022-08-10T01:10:21.023Z,5.28
2022-08-10T01:12:57.063Z,5.65
2022-08-10T01:16:00.478Z,5.10
2022-08-10T01:18:29.770Z,5.75
2022-08-10T01:21:24.060Z,4.80
2022-08-10T01:23:53.431Z,5.22
2022-08-10T01:26:53.499Z,5.47
2022-08-10T01:29:50.414Z,5.95
2022-08-10T01:32:26.900Z,6.07
2022-08-10T01:35:03.772Z,5.70
2022-08-10T01:37:32.892Z,6.00
2022-08-10T01:40:02.930Z,5.63
2022-08-10T01:42:31.490Z,5.93
2022-08-10T01:45:02.866Z,5.28
2022-08-10T01:47:52.603Z,6.50
2022-08-10T01:50:25.608Z,5.57
2022-08-10T01:52:55.326Z,5.93
2022-08-10T01:55:23.217Z,5.30
2022-08-10T01:57:50.155Z,5.20
2022-08-10T02:00:17.187Z,5.28
2022-08-10T02:02:44.525Z,5.57
2022-08-10T02:05:12.063Z,5.45
2022-08-10T02:07:40.199Z,5.57
2022-08-10T02:10:10.436Z,5.50
2022-08-10T02:12:38.144Z,5.68
2022-08-10T02:15:09.122Z,5.93
2022-08-10T02:17:59.624Z,5.05
2022-08-10T02:20:31.676Z,4.88
2022-08-10T02:23:04.732Z,5.93
2022-08-10T02:25:42.566Z,4.93
2022-08-10T02:28:30.523Z,5.30
2022-08-10T02:31:11.816Z,5.88
2022-08-10T02:33:56.506Z,5.35
2022-08-10T02:36:26.565Z,5.30
2022-08-10T02:38:59.235Z,5.65
2022-08-10T02:45:01.377Z,3.90
2022-08-10T02:45:27.650Z,4.97
2022-08-10T02:47:21.786Z,5.22
2022-08-10T02:52:32.269Z,5.53
2022-08-10T02:55:27.195Z,5.30
2022-08-10T02:58:15.319Z,5.95
2022-08-10T03:00:47.664Z,6.25
2022-08-10T03:03:20.555Z,5.72
2022-08-10T03:05:50.106Z,6.18
2022-08-10T03:08:19.858Z,5.65
2022-08-10T03:10:47.517Z,5.72
2022-08-10T03:13:15.209Z,7.20
2022-08-10T03:15:42.294Z,5.97
2022-08-10T03:18:10.301Z,5.80
2022-08-10T03:20:40.433Z,6.45
2022-08-10T03:23:16.747Z,6.10
2022-08-10T03:25:53.725Z,5.57
2022-08-10T03:28:27.280Z,4.97
2022-08-10T03:30:55.020Z,6.28
2022-08-10T03:33:23.423Z,5.82
2022-08-10T03:36:43.168Z,5.30
2022-08-10T03:38:38.567Z,5.95
2022-08-10T03:41:06.734Z,6.85
2022-08-10T03:43:34.222Z,5.85
2022-08-10T03:46:04.135Z,7.25
2022-08-10T03:48:44.695Z,5.25
2022-08-10T03:51:16.144Z,6.55
2022-08-10T03:54:05.039Z,6.18
2022-08-10T03:56:32.416Z,5.60
2022-08-10T03:59:01.072Z,4.15
2022-08-10T04:02:41.519Z,5.63
2022-08-10T04:04:19.298Z,5.57
2022-08-10T04:06:54.353Z,5.70
2022-08-10T04:09:21.885Z,5.60
2022-08-10T04:11:48.604Z,5.97
2022-08-10T04:14:38.584Z,6.15
2022-08-10T04:17:02.013Z,5.38
2022-08-10T04:19:30.285Z,6.75
2022-08-10T04:22:14.733Z,6.03
2022-08-10T04:24:41.882Z,5.38
2022-08-10T04:27:09.241Z,5.38
2022-08-10T04:29:36.313Z,5.38
2022-08-10T04:32:03.662Z,5.63
2022-08-10T04:34:34.668Z,5.15
2022-08-10T04:37:08.869Z,5.47
2022-08-10T04:39:36.284Z,4.20
2022-08-10T04:42:04.028Z,5.72
2022-08-10T04:44:31.123Z,5.97
2022-08-10T04:46:59.303Z,5.75
2022-08-10T04:49:54.216Z,4.85
2022-08-10T04:52:14.122Z,6.47
2022-08-10T04:54:41.719Z,5.10
2022-08-10T04:57:08.994Z,5.13
2022-08-10T04:59:35.844Z,5.70
2022-08-10T05:02:30.573Z,5.13
2022-08-10T05:04:49.220Z,5.65
2022-08-10T05:07:18.300Z,5.55
2022-08-10T05:10:01.596Z,6.03
2022-08-10T05:12:36.629Z,6.20
2022-08-10T05:15:11.870Z,4.68
2022-08-10T05:17:39.771Z,5.93
2022-08-10T05:20:08.861Z,4.90
2022-08-10T05:22:37.395Z,5.28
2022-08-10T05:25:05.738Z,5.47
2022-08-10T05:27:33.635Z,5.20
2022-08-10T05:30:01.812Z,4.97
2022-08-10T05:32:56.690Z,5.53
2022-08-10T05:35:21.246Z,6.72
2022-08-10T05:38:11.753Z,5.13
2022-08-10T05:40:37.756Z,5.03
2022-08-10T05:43:05.433Z,4.70
2022-08-10T05:45:32.136Z,4.70
2022-08-10T05:48:55.838Z,4.95
2022-08-10T05:50:45.585Z,4.93
2022-08-10T05:54:01.106Z,5.05
2022-08-10T05:58:43.938Z,4.78
2022-08-10T06:01:13.494Z,4.53
2022-08-10T06:03:59.077Z,5.68
2022-08-10T06:06:28.013Z,3.95
2022-08-10T06:08:56.794Z,5.35
2022-08-10T06:12:28.313Z,6.05
2022-08-10T06:14:29.585Z,3.75
2022-08-10T06:16:57.113Z,5.22
2022-08-10T06:19:24.460Z,4.78
2022-08-10T06:22:00.846Z,5.22
2022-08-10T06:24:33.784Z,5.57
2022-08-10T06:27:00.537Z,4.78
2022-08-10T06:29:29.861Z,4.63
2022-08-10T06:31:57.434Z,5.80
2022-08-10T06:34:28.318Z,4.45
2022-08-10T06:36:58.351Z,3.80
2022-08-10T06:39:34.866Z,4.78
2022-08-10T06:42:16.402Z,4.55
2022-08-10T06:44:53.980Z,3.10
2022-08-10T06:47:24.868Z,4.78
2022-08-10T06:49:59.986Z,5.45
2022-08-10T06:52:28.951Z,5.45
2022-08-10T06:54:57.613Z,5.15
2022-08-10T06:57:28.273Z,5.78
2022-08-10T06:59:56.918Z,4.13
2022-08-10T07:02:30.588Z,4.97
2022-08-10T07:05:05.505Z,4.68
2022-08-10T07:07:36.733Z,5.43
2022-08-10T07:10:03.994Z,4.57
2022-08-10T07:12:32.219Z,4.97
2022-08-10T07:14:59.853Z,5.07
2022-08-10T07:17:27.510Z,4.60
2022-08-10T07:19:58.860Z,5.43
2022-08-10T07:23:01.138Z,5.13
2022-08-10T07:25:17.468Z,5.68
2022-08-10T07:27:59.542Z,4.88
2022-08-10T07:30:30.029Z,4.78
2022-08-10T07:35:24.706Z,3.47
2022-08-10T07:37:52.047Z,5.45
2022-08-10T07:40:20.660Z,4.63
2022-08-10T07:42:49.919Z,4.50
2022-08-10T07:45:16.934Z,5.07
2022-08-10T07:47:59.838Z,4.57
2022-08-10T07:50:35.361Z,11.20
2022-08-10T07:53:04.647Z,3.67
2022-08-10T07:56:01.399Z,6.90
2022-08-10T07:58:20.272Z,3.50
2022-08-10T08:00:48.730Z,5.25
2022-08-10T08:03:16.106Z,5.07
2022-08-10T08:05:58.125Z,5.07
2022-08-10T08:08:29.736Z,4.25
2022-08-10T08:10:58.348Z,4.80
2022-08-10T08:13:25.264Z,4.75
2022-08-10T08:16:18.398Z,3.97
2022-08-10T08:18:41.989Z,4.18
2022-08-10T08:24:14.653Z,3.97
2022-08-10T08:24:30.912Z,4.43
2022-08-10T08:27:02.578Z,3.03
2022-08-10T08:29:31.869Z,3.83
2022-08-10T08:32:02.508Z,4.85
2022-08-10T08:34:34.877Z,11.18
2022-08-10T08:37:03.317Z,5.65
2022-08-10T08:39:33.257Z,3.25
2022-08-10T08:42:44.805Z,5.07
2022-08-10T08:45:15.252Z,4.20
2022-08-10T08:48:12.632Z,4.90
2022-08-10T08:51:13.802Z,5.05
2022-08-10T08:54:14.590Z,5.90
2022-08-10T08:59:27.380Z,2.97
2022-08-10T09:02:10.330Z,3.83
2022-08-10T09:04:52.285Z,3.13
2022-08-10T09:08:00.261Z,4.25
2022-08-10T09:10:54.653Z,5.13
2022-08-10T09:13:35.088Z,3.30
2022-08-10T09:16:30.304Z,4.30
2022-08-10T09:19:36.672Z,4.47
2022-08-10T09:22:36.289Z,4.00
2022-08-10T09:25:19.361Z,4.45
2022-08-10T09:27:57.254Z,4.25
2022-08-10T09:30:32.206Z,4.32
2022-08-10T09:36:26.579Z,3.55
2022-08-10T09:36:54.788Z,5.10
2022-08-10T09:40:12.449Z,4.40
2022-08-10T09:42:39.053Z,4.45
2022-08-10T09:45:15.793Z,3.45
2022-08-10T09:48:02.297Z,5.03
2022-08-10T09:51:22.716Z,4.78
2022-08-10T09:54:00.378Z,5.65
2022-08-10T09:57:18.194Z,4.32
2022-08-10T10:00:11.438Z,6.13
2022-08-10T10:02:43.322Z,4.47
2022-08-10T10:05:51.404Z,10.90
2022-08-10T10:08:22.098Z,4.68
2022-08-10T10:10:51.932Z,5.38
2022-08-10T10:14:00.175Z,4.85
2022-08-10T10:16:42.655Z,5.43
2022-08-10T10:19:51.766Z,5.15
2022-08-10T10:22:43.795Z,4.85
2022-08-10T10:25:22.450Z,4.55
2022-08-10T10:28:03.102Z,4.70
2022-08-10T10:30:41.925Z,4.57
2022-08-10T10:33:43.528Z,3.83
2022-08-10T10:36:11.206Z,4.45
2022-08-10T10:38:40.008Z,4.20
2022-08-10T10:41:13.382Z,5.18
2022-08-10T10:44:14.494Z,4.28
2022-08-10T10:47:13.998Z,3.95
2022-08-10T10:49:58.634Z,4.65
2022-08-10T10:52:39.162Z,4.88
2022-08-10T10:55:34.720Z,4.15
2022-08-10T10:58:39.747Z,4.40
2022-08-10T11:01:21.866Z,4.72
2022-08-10T11:04:16.362Z,5.18
2022-08-10T11:06:54.677Z,4.70
2022-08-10T11:10:08.663Z,4.43
2022-08-10T11:12:27.478Z,4.15
2022-08-10T11:15:25.796Z,5.35
2022-08-10T11:18:19.203Z,4.25
2022-08-10T11:20:55.201Z,5.35
2022-08-10T11:24:42.504Z,4.55
2022-08-10T11:26:51.629Z,4.68
2022-08-10T11:29:36.705Z,4.80
2022-08-10T11:32:20.754Z,4.45
2022-08-10T11:35:11.888Z,5.32
2022-08-10T11:38:34.436Z,4.82
2022-08-10T11:40:55.028Z,4.20
2022-08-10T11:43:26.324Z,4.85
2022-08-10T11:46:28.094Z,5.28
2022-08-10T11:49:10.546Z,4.07
2022-08-10T11:51:48.195Z,4.95
2022-08-10T11:54:25.568Z,3.75
2022-08-10T11:57:02.197Z,4.63
2022-08-10T11:59:51.028Z,5.25
2022-08-10T12:02:34.526Z,5.25
2022-08-10T12:05:07.845Z,3.45
2022-08-10T12:10:06.239Z,3.25
2022-08-10T12:10:24.014Z,4.18
2022-08-10T12:13:00.483Z,4.40
2022-08-10T12:15:36.840Z,4.60
2022-08-10T12:18:20.582Z,4.65
2022-08-10T12:20:51.760Z,4.78
2022-08-10T12:23:47.736Z,4.80
2022-08-10T12:26:33.693Z,3.50
2022-08-10T12:29:12.040Z,4.38
2022-08-10T12:31:40.980Z,5.13
2022-08-10T12:34:14.577Z,3.58
2022-08-10T12:36:45.133Z,4.72
2022-08-10T12:39:27.326Z,5.32
2022-08-10T12:41:57.852Z,4.57
2022-08-10T12:44:41.923Z,3.35
2022-08-10T12:47:27.969Z,3.67
2022-08-10T12:50:29.939Z,7.57
2022-08-10T12:52:52.051Z,4.70
2022-08-10T12:55:19.888Z,4.18
2022-08-10T12:57:52.643Z,4.10
2022-08-10T13:00:19.896Z,5.43
2022-08-10T13:02:49.168Z,4.88
2022-08-10T13:05:16.360Z,4.22
2022-08-10T13:08:27.307Z,5.45
2022-08-10T13:10:32.013Z,7.28
2022-08-10T13:13:00.197Z,7.20
2022-08-10T13:15:50.176Z,6.75
2022-08-10T13:18:25.674Z,6.88
2022-08-10T13:23:23.896Z,6.45
2022-08-10T13:25:52.201Z,6.32
2022-08-10T13:28:36.666Z,6.22
2022-08-10T13:31:17.043Z,5.93
2022-08-10T13:34:38.862Z,4.95
2022-08-10T13:36:43.166Z,4.88
2022-08-10T13:39:10.828Z,5.97
2022-08-10T13:41:42.921Z,4.80
2022-08-10T13:44:11.821Z,6.40
2022-08-10T13:46:42.250Z,7.75
2022-08-10T13:49:09.901Z,5.93
2022-08-10T13:51:57.629Z,7.22
2022-08-10T13:54:28.074Z,8.63
2022-08-10T13:56:56.198Z,8.07
2022-08-10T14:00:36.106Z,8.52
2022-08-10T14:02:17.882Z,9.63
2022-08-10T14:04:46.124Z,9.30
2022-08-10T14:07:14.038Z,8.63
2022-08-10T14:09:43.284Z,7.70
2022-08-10T14:12:10.705Z,8.02
2022-08-10T14:14:37.841Z,6.15
2022-08-10T14:17:07.323Z,7.97
2022-08-10T14:19:43.271Z,7.47
2022-08-10T14:22:10.855Z,7.75
2022-08-10T14:24:37.572Z,6.20
2022-08-10T14:27:07.111Z,7.75
2022-08-10T14:29:42.218Z,7.20
2022-08-10T14:32:10.703Z,6.28
2022-08-10T14:36:16.160Z,6.00
2022-08-10T14:38:09.442Z,6.50
2022-08-10T14:40:43.967Z,6.25
2022-08-10T14:43:16.161Z,7.45
2022-08-10T14:46:02.973Z,7.63
2022-08-10T14:48:35.189Z,6.88
2022-08-10T14:51:05.594Z,6.85
2022-08-10T14:53:36.257Z,7.25
2022-08-10T14:56:14.897Z,7.43
2022-08-10T14:59:05.718Z,7.43
2022-08-10T15:02:37.489Z,7.03
2022-08-10T15:04:23.940Z,11.65
2022-08-10T15:06:56.057Z,6.28
2022-08-10T15:09:24.869Z,8.30
2022-08-10T15:12:13.486Z,7.82
2022-08-10T15:14:45.967Z,7.13
2022-08-10T15:17:16.658Z,7.78
2022-08-10T15:20:02.326Z,8.00
2022-08-10T15:22:37.621Z,6.88
2022-08-10T15:25:18.675Z,7.25
2022-08-10T15:27:54.522Z,7.70
2022-08-10T15:30:30.111Z,6.10
2022-08-10T15:33:21.575Z,9.82
2022-08-10T15:36:24.956Z,7.47
2022-08-10T15:41:58.748Z,6.30
2022-08-10T15:44:24.309Z,6.72
2022-08-10T15:46:57.789Z,5.15
2022-08-10T15:49:55.284Z,6.25
2022-08-10T15:53:01.194Z,6.20
2022-08-10T15:55:43.030Z,9.18
2022-08-10T15:58:18.911Z,5.93
2022-08-10T16:02:12.489Z,6.13
2022-08-10T16:04:31.856Z,4.25
2022-08-10T16:07:02.952Z,4.38
2022-08-10T16:10:26.233Z,6.20
2022-08-10T16:12:29.639Z,6.03
2022-08-10T16:14:57.269Z,4.80
2022-08-10T16:17:24.315Z,7.07
2022-08-10T16:19:55.248Z,6.13
2022-08-10T16:22:34.043Z,9.77
2022-08-10T16:25:13.883Z,5.05
2022-08-10T16:27:41.557Z,14.85
2022-08-10T16:30:08.537Z,9.77
2022-08-10T16:32:36.187Z,6.57
2022-08-10T16:35:09.469Z,8.45
2022-08-10T16:37:59.004Z,12.23
2022-08-10T16:40:28.398Z,5.72
2022-08-10T16:42:56.268Z,5.55
2022-08-10T16:45:30.988Z,5.55
2022-08-10T16:47:58.222Z,5.47
2022-08-10T16:50:29.986Z,4.93
2022-08-10T16:53:00.425Z,5.40
2022-08-10T16:55:48.457Z,4.70
2022-08-10T16:58:19.723Z,4.20
2022-08-10T17:00:47.396Z,5.13
2022-08-10T17:03:22.557Z,3.75
2022-08-10T17:06:11.387Z,5.65
2022-08-10T17:08:48.705Z,5.00
2022-08-10T17:11:17.787Z,5.95
2022-08-10T17:16:12.382Z,4.95
2022-08-10T17:18:41.685Z,4.85
2022-08-10T17:21:31.094Z,5.03
2022-08-10T17:24:00.722Z,5.47
2022-08-10T17:26:37.209Z,4.65
2022-08-10T17:29:58.166Z,6.72
2022-08-10T17:32:18.019Z,5.47
2022-08-10T17:34:47.189Z,4.25
2022-08-10T17:37:17.250Z,6.82
2022-08-10T17:39:48.813Z,4.43
2022-08-10T17:42:21.748Z,4.97
2022-08-10T17:44:51.796Z,4.97
2022-08-10T17:47:20.010Z,7.35
2022-08-10T17:49:47.373Z,5.22
2022-08-10T17:52:21.051Z,3.78
2022-08-10T17:54:57.235Z,3.80
2022-08-10T17:57:24.782Z,3.60
2022-08-10T17:59:53.037Z,4.63
2022-08-10T18:02:23.483Z,3.38
2022-08-10T18:05:09.688Z,2.20
2022-08-10T18:07:40.917Z,3.38
2022-08-10T18:10:09.858Z,3.38
2022-08-10T18:12:44.700Z,5.15
2022-08-10T18:15:13.586Z,2.78
2022-08-10T18:17:45.347Z,3.28
2022-08-10T18:20:13.312Z,2.78
2022-08-10T18:22:46.792Z,3.08
2022-08-10T18:25:25.609Z,3.03
2022-08-10T18:28:04.604Z,3.17
2022-08-10T18:30:36.385Z,3.53
2022-08-10T18:33:05.087Z,4.28
2022-08-10T18:35:34.738Z,3.58
2022-08-10T18:38:03.205Z,3.08
2022-08-10T18:40:35.935Z,5.32
2022-08-10T18:43:08.588Z,4.78
2022-08-10T18:45:53.216Z,4.30
2022-08-10T18:48:22.799Z,8.32
2022-08-10T18:50:53.786Z,4.07
2022-08-10T18:53:48.532Z,3.25
2022-08-10T18:56:23.815Z,2.38
2022-08-10T18:59:26.484Z,3.05
2022-08-10T19:02:31.094Z,2.65
2022-08-10T19:05:00.947Z,5.43
2022-08-10T19:07:34.268Z,8.00
2022-08-10T19:10:14.505Z,3.67
2022-08-10T19:13:10.609Z,3.65
2022-08-10T19:16:01.825Z,4.20
2022-08-10T19:18:31.965Z,4.47
2022-08-10T19:21:04.730Z,4.00
2022-08-10T19:23:34.689Z,3.70
2022-08-10T19:26:43.804Z,3.55
2022-08-10T19:30:04.992Z,4.90
2022-08-10T19:32:13.702Z,5.07
2022-08-10T19:35:03.131Z,4.40
2022-08-10T19:37:43.523Z,4.57
2022-08-10T19:40:44.459Z,4.03
2022-08-10T19:44:01.819Z,3.65
2022-08-10T19:46:52.052Z,3.42
2022-08-10T19:49:41.738Z,4.47
2022-08-10T19:52:23.544Z,3.65
2022-08-10T19:55:15.828Z,3.42
2022-08-10T19:57:47.092Z,3.00
2022-08-10T20:00:21.692Z,3.13
2022-08-10T20:02:59.893Z,3.40
2022-08-10T20:05:31.996Z,3.72
2022-08-10T20:08:08.318Z,3.17
2022-08-10T20:10:45.533Z,2.95
2022-08-10T20:13:42.790Z,3.20
2022-08-10T20:16:27.251Z,2.30
2022-08-10T20:18:57.422Z,3.42
2022-08-10T20:21:47.030Z,3.13
2022-08-10T20:24:24.951Z,3.13
2022-08-10T20:26:55.453Z,2.40
2022-08-10T20:29:57.956Z,2.97
2022-08-10T20:32:24.457Z,3.58
2022-08-10T20:34:56.785Z,3.60
2022-08-10T20:38:03.453Z,2.78
2022-08-10T20:41:01.539Z,3.17
2022-08-10T20:43:34.350Z,2.63
2022-08-10T20:46:22.109Z,2.72
2022-08-10T20:49:19.573Z,2.97
2022-08-10T20:51:58.723Z,2.50
2022-08-10T20:54:33.808Z,3.53
2022-08-10T20:57:55.310Z,2.95
2022-08-10T21:00:14.533Z,2.72
2022-08-10T21:03:17.155Z,2.35
2022-08-10T21:06:00.073Z,2.60
2022-08-10T21:08:44.949Z,2.47
2022-08-10T21:11:37.392Z,2.55
2022-08-10T21:14:22.855Z,2.83
2022-08-10T21:17:08.226Z,2.78
2022-08-10T21:19:55.392Z,1.85
2022-08-10T21:22:29.479Z,2.40
2022-08-10T21:25:03.756Z,2.72
2022-08-10T21:27:49.104Z,3.08
2022-08-10T21:30:40.486Z,2.90
2022-08-10T21:33:12.216Z,2.20
2022-08-10T21:35:47.338Z,2.22
2022-08-10T21:38:31.430Z,2.95
2022-08-10T21:41:58.439Z,2.25
2022-08-10T21:50:46.857Z,2.47
2022-08-10T21:53:54.237Z,2.22
2022-08-10T21:56:54.460Z,2.33
2022-08-10T22:00:01.023Z,2.38
2022-08-10T22:02:50.977Z,2.33
2022-08-10T22:05:43.526Z,2.45
2022-08-10T22:08:29.692Z,2.70
2022-08-10T22:11:16.182Z,2.22
2022-08-10T22:14:05.048Z,2.47
2022-08-10T22:18:00.177Z,2.38
2022-08-10T22:20:27.119Z,2.75
2022-08-10T22:23:34.450Z,2.47
2022-08-10T22:27:00.786Z,3.58
2022-08-10T22:30:00.112Z,3.05
2022-08-10T22:31:28.110Z,1.80
2022-08-10T22:33:10.568Z,3.15
2022-08-10T22:36:09.365Z,2.22
2022-08-10T22:39:09.198Z,2.80
2022-08-10T22:42:58.912Z,2.85
2022-08-10T22:45:41.767Z,2.67
2022-08-10T22:48:27.145Z,2.60
2022-08-10T22:50:58.096Z,3.20
2022-08-10T22:53:53.405Z,2.72
2022-08-10T22:56:39.641Z,2.50
2022-08-10T22:59:07.883Z,2.47
2022-08-10T23:02:07.386Z,2.92
2022-08-10T23:04:52.133Z,3.08
2022-08-10T23:07:27.122Z,2.58
2022-08-10T23:10:01.822Z,2.78
2022-08-10T23:12:36.200Z,3.95
2022-08-10T23:15:25.140Z,2.33
2022-08-10T23:18:13.455Z,2.58
2022-08-10T23:20:41.812Z,3.05
2022-08-10T23:23:12.546Z,2.40
2022-08-10T23:25:56.533Z,3.20
2022-08-10T23:28:55.493Z,2.78
2022-08-10T23:33:39.392Z,2.63
2022-08-10T23:36:33.764Z,2.72
2022-08-10T23:39:23.888Z,2.47
2022-08-10T23:41:42.677Z,3.03
2022-08-10T23:44:14.782Z,2.60
2022-08-10T23:46:48.189Z,2.47
2022-08-10T23:49:15.044Z,2.60
2022-08-10T23:51:54.694Z,2.33
2022-08-10T23:54:23.488Z,2.35
2022-08-10T23:56:56.614Z,1.73
2022-08-10T23:59:28.521Z,2.45
